Time,TemperatureF,DewpointF,PressureIn,WindDirection,WindDirectionDegrees,WindSpeedMPH,WindSpeedGustMPH,Humidity,HourlyPrecipIn,Conditions,Clouds,dailyrainin,SoftwareType,DateUTC
2013-03-03 00:02:00,20.4,12.5,29.32,NNE,22,0.0,0.0,71,0.00,,---,0.00,VWS V13.01,2013-03-03 06:02:00,
2013-03-03 00:07:00,20.4,12.5,29.31,NNE,22,0.0,0.0,71,0.00,,---,0.00,VWS V13.01,2013-03-03 06:07:00,
2013-03-03 00:12:00,20.3,12.4,29.31,NNE,22,0.0,0.0,71,0.00,,---,0.00,VWS V13.01,2013-03-03 06:12:00,
2013-03-03 00:18:00,19.9,12.0,29.31,NNE,22,0.0,0.0,71,0.00,,---,0.00,VWS V13.01,2013-03-03 06:18:00,
2013-03-03 00:23:00,19.7,11.8,29.30,NNE,22,0.0,0.0,71,0.00,,---,0.00,VWS V13.01,2013-03-03 06:23:00,
2013-03-03 00:28:00,19.5,11.6,29.30,NNE,22,0.0,0.0,71,0.00,,---,0.00,VWS V13.01,2013-03-03 06:28:00,
2013-03-03 00:33:00,19.5,11.6,29.30,NNE,22,0.0,0.0,71,0.00,,---,0.00,VWS V13.01,2013-03-03 06:33:00,
2013-03-03 00:38:00,19.4,11.9,29.31,NNE,22,0.0,0.0,72,0.00,,---,0.00,VWS V13.01,2013-03-03 06:38:00,
2013-03-03 00:43:00,19.2,11.7,29.31,NNE,22,0.0,0.0,72,0.00,,---,0.00,VWS V13.01,2013-03-03 06:43:00,
2013-03-03 00:48:00,19.2,11.7,29.31,NNE,22,0.0,0.0,72,0.00,,---,0.00,VWS V13.01,2013-03-03 06:48:00,
2013-03-03 00:53:00,19.2,11.7,29.31,NNE,22,0.0,0.0,72,0.00,,---,0.00,VWS V13.01,2013-03-03 06:53:00,
2013-03-03 00:58:00,19.2,11.7,29.30,NNE,22,0.0,0.0,72,0.00,,---,0.00,VWS V13.01,2013-03-03 06:58:00,
2013-03-03 01:03:00,19.2,11.7,29.30,NNE,22,0.0,0.0,72,0.00,,---,0.00,VWS V13.01,2013-03-03 07:03:00,
2013-03-03 01:08:00,19.2,11.7,29.30,NNE,22,0.0,0.0,72,0.00,,---,0.00,VWS V13.01,2013-03-03 07:08:00,
2013-03-03 01:13:00,19.0,11.5,29.30,NNE,22,0.0,0.0,72,0.00,,---,0.00,VWS V13.01,2013-03-03 07:13:00,
2013-03-03 01:18:00,19.0,11.5,29.30,NNE,22,0.0,0.0,72,0.00,,---,0.00,VWS V13.01,2013-03-03 07:18:00,
2013-03-03 01:23:00,19.0,11.5,29.30,NNE,22,0.0,0.0,72,0.00,,---,0.00,VWS V13.01,2013-03-03 07:23:00,
2013-03-03 01:28:00,19.2,11.7,29.29,NNE,22,0.0,0.0,72,0.00,,---,0.00,VWS V13.01,2013-03-03 07:28:00,
2013-03-03 01:33:00,19.2,11.7,29.29,NNE,22,0.0,0.0,72,0.00,,---,0.00,VWS V13.01,2013-03-03 07:33:00,
2013-03-03 01:38:00,19.2,11.7,29.29,NNE,22,0.0,0.0,72,0.00,,---,0.00,VWS V13.01,2013-03-03 07:38:00,
2013-03-03 01:43:00,19.2,11.7,29.29,NNE,22,0.0,0.0,72,0.00,,---,0.00,VWS V13.01,2013-03-03 07:43:00,
2013-03-03 01:48:00,19.2,11.7,29.29,NNE,22,0.0,0.0,72,0.00,,---,0.00,VWS V13.01,2013-03-03 07:48:00,
2013-03-03 01:53:00,19.4,11.9,29.29,East,90,0.0,0.0,72,0.00,,---,0.00,VWS V13.01,2013-03-03 07:53:00,
2013-03-03 01:58:00,19.4,11.9,29.28,East,90,0.0,0.0,72,0.00,,---,0.00,VWS V13.01,2013-03-03 07:58:00,
2013-03-03 02:03:00,19.4,11.9,29.28,East,90,0.0,0.0,72,0.00,,---,0.00,VWS V13.01,2013-03-03 08:03:00,
2013-03-03 02:08:00,19.5,12.0,29.28,East,90,0.0,0.0,72,0.00,,---,0.00,VWS V13.01,2013-03-03 08:08:00,
2013-03-03 02:14:00,19.5,12.0,29.28,ESE,112,0.0,0.0,72,0.00,,---,0.00,VWS V13.01,2013-03-03 08:14:00,
2013-03-03 02:19:00,19.5,12.0,29.28,ESE,112,0.0,0.0,72,0.00,,---,0.00,VWS V13.01,2013-03-03 08:19:00,
2013-03-03 02:24:00,19.5,12.0,29.28,ESE,112,0.0,0.0,72,0.00,,---,0.00,VWS V13.01,2013-03-03 08:24:00,
2013-03-03 02:29:00,19.5,12.0,29.28,ESE,112,0.0,0.0,72,0.00,,---,0.00,VWS V13.01,2013-03-03 08:29:00,
2013-03-03 02:34:00,19.5,12.0,29.27,ESE,112,0.0,0.0,72,0.00,,---,0.00,VWS V13.01,2013-03-03 08:34:00,
2013-03-03 02:39:00,19.4,11.9,29.27,ESE,112,0.0,0.0,72,0.00,,---,0.00,VWS V13.01,2013-03-03 08:39:00,
2013-03-03 02:44:00,19.4,11.9,29.27,ESE,112,0.0,0.0,72,0.00,,---,0.00,VWS V13.01,2013-03-03 08:44:00,
2013-03-03 02:49:00,19.2,11.7,29.27,ESE,112,0.0,0.0,72,0.00,,---,0.00,VWS V13.01,2013-03-03 08:49:00,
2013-03-03 02:54:00,19.2,11.7,29.27,ESE,112,0.0,0.0,72,0.00,,---,0.00,VWS V13.01,2013-03-03 08:54:00,
2013-03-03 02:59:00,19.2,11.7,29.27,ESE,112,0.0,0.0,72,0.00,,---,0.00,VWS V13.01,2013-03-03 08:59:00,
2013-03-03 03:04:00,19.2,11.7,29.27,ESE,112,0.0,0.0,72,0.00,,---,0.00,VWS V13.01,2013-03-03 09:04:00,
2013-03-03 03:09:00,19.0,11.8,29.27,ESE,112,0.0,0.0,73,0.00,,---,0.00,VWS V13.01,2013-03-03 09:09:00,
2013-03-03 03:14:00,19.2,12.0,29.27,ESE,112,0.0,0.0,73,0.00,,---,0.00,VWS V13.01,2013-03-03 09:14:00,
2013-03-03 03:19:00,19.0,11.8,29.26,ESE,112,0.0,0.0,73,0.00,,---,0.00,VWS V13.01,2013-03-03 09:19:00,
2013-03-03 03:24:00,19.0,11.8,29.26,ESE,112,0.0,0.0,73,0.00,,---,0.00,VWS V13.01,2013-03-03 09:24:00,
2013-03-03 03:29:00,19.2,12.0,29.26,ESE,112,0.0,0.0,73,0.00,,---,0.00,VWS V13.01,2013-03-03 09:29:00,
2013-03-03 03:34:00,19.2,12.0,29.26,ESE,112,0.0,0.0,73,0.00,,---,0.00,VWS V13.01,2013-03-03 09:34:00,
2013-03-03 03:39:00,19.2,12.0,29.26,ESE,112,0.0,0.0,73,0.00,,---,0.00,VWS V13.01,2013-03-03 09:39:00,
2013-03-03 03:44:00,19.2,12.0,29.26,ESE,112,0.0,0.0,73,0.00,,---,0.00,VWS V13.01,2013-03-03 09:44:00,
2013-03-03 03:49:00,19.2,12.0,29.26,ESE,112,0.0,0.0,73,0.00,,---,0.00,VWS V13.01,2013-03-03 09:49:00,
2013-03-03 03:54:00,19.2,12.0,29.25,ESE,112,0.0,0.0,73,0.00,,---,0.00,VWS V13.01,2013-03-03 09:54:00,
2013-03-03 03:59:00,19.2,12.0,29.25,ESE,112,0.0,0.0,73,0.00,,---,0.00,VWS V13.01,2013-03-03 09:59:00,
2013-03-03 04:05:00,19.2,12.0,29.25,ESE,112,0.0,0.0,73,0.00,,---,0.00,VWS V13.01,2013-03-03 10:05:00,
2013-03-03 04:10:00,19.4,12.2,29.26,ESE,112,0.0,0.0,73,0.00,,---,0.00,VWS V13.01,2013-03-03 10:10:00,
2013-03-03 04:15:00,19.5,12.3,29.26,ESE,112,0.0,0.0,73,0.00,,---,0.00,VWS V13.01,2013-03-03 10:15:00,
2013-03-03 04:20:00,19.5,12.3,29.26,ESE,112,0.0,0.0,73,0.00,,---,0.00,VWS V13.01,2013-03-03 10:20:00,
2013-03-03 04:25:00,19.5,12.3,29.26,ESE,112,0.0,0.0,73,0.00,,---,0.00,VWS V13.01,2013-03-03 10:25:00,
2013-03-03 04:31:00,19.5,12.3,29.26,SE,135,3.0,3.0,73,0.00,,---,0.00,VWS V13.01,2013-03-03 10:31:00,
2013-03-03 04:36:00,19.5,12.3,29.26,ESE,112,0.0,0.0,73,0.00,,---,0.00,VWS V13.01,2013-03-03 10:36:00,
2013-03-03 04:41:00,19.5,12.3,29.26,ESE,112,0.0,0.0,73,0.00,,---,0.00,VWS V13.01,2013-03-03 10:41:00,
2013-03-03 04:46:00,19.5,12.3,29.26,SE,135,0.0,0.0,73,0.00,,---,0.00,VWS V13.01,2013-03-03 10:46:00,
2013-03-03 04:51:00,19.5,12.3,29.26,SE,135,0.0,0.0,73,0.00,,---,0.00,VWS V13.01,2013-03-03 10:51:00,
2013-03-03 04:57:00,19.5,12.3,29.25,SE,135,0.0,0.0,73,0.00,,---,0.00,VWS V13.01,2013-03-03 10:57:00,
2013-03-03 05:02:00,19.5,12.3,29.26,SE,135,0.0,0.0,73,0.00,,---,0.00,VWS V13.01,2013-03-03 11:02:00,
2013-03-03 05:07:00,19.5,12.3,29.25,ESE,112,0.0,0.0,73,0.00,,---,0.00,VWS V13.01,2013-03-03 11:07:00,
2013-03-03 05:12:00,19.5,12.3,29.25,SE,135,0.0,0.0,73,0.00,,---,0.00,VWS V13.01,2013-03-03 11:12:00,
2013-03-03 05:17:00,19.5,12.6,29.25,SE,135,0.0,0.0,74,0.00,,---,0.00,VWS V13.01,2013-03-03 11:17:00,
2013-03-03 05:22:00,19.5,12.6,29.25,SE,135,0.0,0.0,74,0.00,,---,0.00,VWS V13.01,2013-03-03 11:22:00,
2013-03-03 05:27:00,19.5,12.6,29.25,SE,135,0.0,0.0,74,0.00,,---,0.00,VWS V13.01,2013-03-03 11:27:00,
2013-03-03 05:32:00,19.5,12.6,29.25,SE,135,0.0,0.0,74,0.00,,---,0.00,VWS V13.01,2013-03-03 11:32:00,
2013-03-03 05:37:00,19.5,12.6,29.26,SE,135,0.0,0.0,74,0.00,,---,0.00,VWS V13.01,2013-03-03 11:37:00,
2013-03-03 05:42:00,19.5,12.6,29.26,SE,135,0.0,0.0,74,0.00,,---,0.00,VWS V13.01,2013-03-03 11:42:00,
2013-03-03 05:47:00,19.5,12.6,29.26,SE,135,0.0,0.0,74,0.00,,---,0.00,VWS V13.01,2013-03-03 11:47:00,
2013-03-03 05:52:00,19.5,12.6,29.26,SE,135,0.0,0.0,74,0.00,,---,0.00,VWS V13.01,2013-03-03 11:52:00,
2013-03-03 05:57:00,19.5,12.3,29.26,SE,135,0.0,0.0,73,0.00,,---,0.00,VWS V13.01,2013-03-03 11:57:00,
2013-03-03 06:02:00,19.5,12.3,29.26,SE,135,0.0,0.0,73,0.00,,---,0.00,VWS V13.01,2013-03-03 12:02:00,
2013-03-03 06:07:00,19.4,12.2,29.25,SE,135,0.0,0.0,73,0.00,,---,0.00,VWS V13.01,2013-03-03 12:07:00,
2013-03-03 06:12:00,19.2,12.0,29.25,SE,135,0.0,0.0,73,0.00,,---,0.00,VWS V13.01,2013-03-03 12:12:00,
2013-03-03 06:17:00,19.0,11.8,29.26,SE,135,0.0,0.0,73,0.00,,---,0.00,VWS V13.01,2013-03-03 12:17:00,
2013-03-03 06:22:00,19.0,11.8,29.25,SE,135,0.0,0.0,73,0.00,,---,0.00,VWS V13.01,2013-03-03 12:22:00,
2013-03-03 06:27:00,18.6,11.4,29.25,SE,135,0.0,0.0,73,0.00,,---,0.00,VWS V13.01,2013-03-03 12:27:00,
2013-03-03 06:32:00,18.5,11.3,29.26,SE,135,0.0,0.0,73,0.00,,---,0.00,VWS V13.01,2013-03-03 12:32:00,
2013-03-03 06:37:00,18.5,11.3,29.26,SE,135,0.0,0.0,73,0.00,,---,0.00,VWS V13.01,2013-03-03 12:37:00,
2013-03-03 06:42:00,18.3,11.1,29.26,SE,135,0.0,0.0,73,0.00,,---,0.00,VWS V13.01,2013-03-03 12:42:00,
2013-03-03 06:47:00,18.3,11.1,29.25,SE,135,0.0,0.0,73,0.00,,---,0.00,VWS V13.01,2013-03-03 12:47:00,
2013-03-03 06:52:00,18.1,10.9,29.25,SE,135,0.0,0.0,73,0.00,,---,0.00,VWS V13.01,2013-03-03 12:52:00,
2013-03-03 06:57:00,17.9,10.7,29.25,SE,135,0.0,0.0,73,0.00,,---,0.00,VWS V13.01,2013-03-03 12:57:00,
2013-03-03 07:02:00,17.9,10.7,29.25,SE,135,0.0,0.0,73,0.00,,---,0.00,VWS V13.01,2013-03-03 13:02:00,
2013-03-03 07:07:00,17.9,11.0,29.25,SE,135,0.0,0.0,74,0.00,,---,0.00,VWS V13.01,2013-03-03 13:07:00,
2013-03-03 07:12:00,18.1,11.2,29.25,SE,135,0.0,0.0,74,0.00,,---,0.00,VWS V13.01,2013-03-03 13:12:00,
2013-03-03 07:17:00,18.1,11.2,29.25,SE,135,0.0,0.0,74,0.00,,---,0.00,VWS V13.01,2013-03-03 13:17:00,
2013-03-03 07:22:00,18.1,11.2,29.25,SE,135,0.0,0.0,74,0.00,,---,0.00,VWS V13.01,2013-03-03 13:22:00,
2013-03-03 07:28:00,18.1,11.2,29.25,SE,135,0.0,0.0,74,0.00,,---,0.00,VWS V13.01,2013-03-03 13:28:00,
2013-03-03 07:33:00,18.3,11.4,29.25,SE,135,0.0,0.0,74,0.00,,---,0.00,VWS V13.01,2013-03-03 13:33:00,
2013-03-03 07:38:00,18.3,11.4,29.25,SE,135,0.0,0.0,74,0.00,,---,0.00,VWS V13.01,2013-03-03 13:38:00,
2013-03-03 07:43:00,18.3,11.4,29.25,SE,135,0.0,0.0,74,0.00,,---,0.00,VWS V13.01,2013-03-03 13:43:00,
2013-03-03 07:48:00,18.3,11.4,29.26,SE,135,0.0,0.0,74,0.00,,---,0.00,VWS V13.01,2013-03-03 13:48:00,
2013-03-03 07:53:00,18.3,11.4,29.26,SE,135,0.0,0.0,74,0.00,,---,0.00,VWS V13.01,2013-03-03 13:53:00,
2013-03-03 07:58:00,18.3,11.4,29.25,SE,135,0.0,0.0,74,0.00,,---,0.00,VWS V13.01,2013-03-03 13:58:00,
2013-03-03 08:03:00,18.3,11.4,29.25,SE,135,0.0,0.0,74,0.00,,---,0.00,VWS V13.01,2013-03-03 14:03:00,
2013-03-03 08:08:00,18.3,11.4,29.25,SE,135,0.0,0.0,74,0.00,,---,0.00,VWS V13.01,2013-03-03 14:08:00,
2013-03-03 08:13:00,18.3,11.4,29.25,SE,135,0.0,0.0,74,0.00,,---,0.00,VWS V13.01,2013-03-03 14:13:00,
2013-03-03 08:18:00,18.5,11.6,29.25,SE,135,0.0,0.0,74,0.00,,---,0.00,VWS V13.01,2013-03-03 14:18:00,
2013-03-03 08:23:00,19.0,12.1,29.25,SE,135,0.0,0.0,74,0.00,,---,0.00,VWS V13.01,2013-03-03 14:23:00,
2013-03-03 08:28:00,19.2,12.3,29.25,SE,135,0.0,0.0,74,0.00,,---,0.00,VWS V13.01,2013-03-03 14:28:00,
2013-03-03 08:33:00,19.5,12.6,29.25,SE,135,0.0,0.0,74,0.00,,---,0.00,VWS V13.01,2013-03-03 14:33:00,
2013-03-03 08:38:00,19.9,13.0,29.25,ESE,112,0.0,0.0,74,0.00,,---,0.00,VWS V13.01,2013-03-03 14:38:00,
2013-03-03 08:43:00,20.1,12.9,29.25,SE,135,0.0,0.0,73,0.00,,---,0.00,VWS V13.01,2013-03-03 14:43:00,
2013-03-03 08:48:00,20.8,13.5,29.25,ESE,112,0.0,10.2,73,0.00,,---,0.00,VWS V13.01,2013-03-03 14:48:00,
2013-03-03 08:53:00,21.0,13.7,29.25,ESE,112,1.2,1.2,73,0.00,,---,0.00,VWS V13.01,2013-03-03 14:53:00,
2013-03-03 08:58:00,21.3,14.0,29.25,SE,135,4.0,4.0,73,0.00,,---,0.00,VWS V13.01,2013-03-03 14:58:00,
2013-03-03 09:03:00,21.7,14.1,29.25,SE,135,0.0,0.0,72,0.00,,---,0.00,VWS V13.01,2013-03-03 15:03:00,
2013-03-03 09:08:00,21.9,14.3,29.25,SE,135,0.0,0.0,72,0.00,,---,0.00,VWS V13.01,2013-03-03 15:08:00,
2013-03-03 09:13:00,22.2,14.6,29.25,SE,135,0.0,0.0,72,0.00,,---,0.00,VWS V13.01,2013-03-03 15:13:00,
2013-03-03 09:18:00,22.6,14.9,29.24,SE,135,5.8,5.8,72,0.00,,---,0.00,VWS V13.01,2013-03-03 15:18:00,
2013-03-03 09:23:00,22.8,14.8,29.24,SE,135,0.0,19.2,71,0.00,,---,0.00,VWS V13.01,2013-03-03 15:23:00,
2013-03-03 09:28:00,23.0,15.0,29.24,ESE,112,1.2,1.2,71,0.00,,---,0.00,VWS V13.01,2013-03-03 15:28:00,
2013-03-03 09:33:00,23.3,15.0,29.24,SE,135,0.0,14.2,70,0.00,,---,0.00,VWS V13.01,2013-03-03 15:33:00,
2013-03-03 09:38:00,23.5,15.2,29.24,SE,135,0.0,0.0,70,0.00,,---,0.00,VWS V13.01,2013-03-03 15:38:00,
2013-03-03 09:43:00,23.9,15.2,29.24,SSE,158,0.0,0.0,69,0.00,,---,0.00,VWS V13.01,2013-03-03 15:43:00,
2013-03-03 09:48:00,24.4,15.7,29.24,SE,135,0.0,0.0,69,0.00,,---,0.00,VWS V13.01,2013-03-03 15:48:00,
2013-03-03 09:53:00,24.6,15.6,29.24,ESE,112,0.0,14.6,68,0.00,,---,0.00,VWS V13.01,2013-03-03 15:53:00,
2013-03-03 09:58:00,24.9,15.9,29.23,SE,135,0.0,0.0,68,0.00,,---,0.00,VWS V13.01,2013-03-03 15:58:00,
2013-03-03 10:03:00,25.3,16.2,29.23,SE,135,0.0,0.0,68,0.00,,---,0.00,VWS V13.01,2013-03-03 16:03:00,
2013-03-03 10:08:00,25.8,16.4,29.23,SE,135,0.0,0.0,67,0.00,,---,0.00,VWS V13.01,2013-03-03 16:08:00,
2013-03-03 10:13:00,26.4,16.9,29.23,SE,135,5.2,5.2,67,0.00,,---,0.00,VWS V13.01,2013-03-03 16:13:00,
2013-03-03 10:18:00,26.9,17.1,29.23,ESE,112,3.4,3.4,66,0.00,,---,0.00,VWS V13.01,2013-03-03 16:18:00,
2013-03-03 10:23:00,27.1,16.9,29.23,SE,135,2.2,2.2,65,0.00,,---,0.00,VWS V13.01,2013-03-03 16:23:00,
2013-03-03 10:28:00,27.3,16.8,29.23,ESE,112,4.0,4.0,64,0.00,,---,0.00,VWS V13.01,2013-03-03 16:28:00,
2013-03-03 10:33:00,27.6,17.0,29.23,ESE,112,0.0,0.0,64,0.00,,---,0.00,VWS V13.01,2013-03-03 16:33:00,
2013-03-03 10:38:00,28.0,17.0,29.23,ESE,112,4.0,5.2,63,0.00,,---,0.00,VWS V13.01,2013-03-03 16:38:00,
2013-03-03 10:43:00,28.0,17.0,29.23,ESE,112,14.6,14.6,63,0.00,,---,0.00,VWS V13.01,2013-03-03 16:43:00,
2013-03-03 10:48:00,28.5,17.1,29.23,SE,135,4.8,4.8,62,0.00,,---,0.00,VWS V13.01,2013-03-03 16:48:00,
2013-03-03 10:53:00,28.9,17.5,29.23,ESE,112,17.4,17.4,62,0.00,,---,0.00,VWS V13.01,2013-03-03 16:53:00,
2013-03-03 10:58:00,29.1,17.3,29.23,ESE,112,0.0,0.0,61,0.00,,---,0.00,VWS V13.01,2013-03-03 16:58:00,
2013-03-03 11:03:00,29.6,17.4,29.23,ESE,112,11.6,11.6,60,0.00,,---,0.00,VWS V13.01,2013-03-03 17:03:00,
2013-03-03 11:08:00,30.0,17.8,29.23,SE,135,14.2,14.2,60,0.00,,---,0.00,VWS V13.01,2013-03-03 17:08:00,
2013-03-03 11:13:00,30.0,17.4,29.23,SE,135,10.6,10.6,59,0.00,,---,0.00,VWS V13.01,2013-03-03 17:13:00,
2013-03-03 11:18:00,30.3,17.7,29.23,ESE,112,4.4,4.4,59,0.00,,---,0.00,VWS V13.01,2013-03-03 17:18:00,
2013-03-03 11:23:00,30.9,17.9,29.22,SE,135,0.0,0.0,58,0.00,,---,0.00,VWS V13.01,2013-03-03 17:23:00,
2013-03-03 11:28:00,31.2,18.2,29.23,ESE,112,0.0,0.0,58,0.00,,---,0.00,VWS V13.01,2013-03-03 17:28:00,
2013-03-03 11:33:00,31.6,18.1,29.22,SE,135,5.8,6.6,57,0.00,,---,0.00,VWS V13.01,2013-03-03 17:33:00,
2013-03-03 11:38:00,31.6,18.1,29.23,SE,135,13.4,13.4,57,0.00,,---,0.00,VWS V13.01,2013-03-03 17:38:00,
2013-03-03 11:43:00,31.6,17.7,29.23,SE,135,25.4,25.4,56,0.00,,---,0.00,VWS V13.01,2013-03-03 17:43:00,
2013-03-03 11:48:00,31.8,17.9,29.22,SE,135,7.6,7.6,56,0.00,,---,0.00,VWS V13.01,2013-03-03 17:48:00,
2013-03-03 11:53:00,32.1,18.2,29.22,SE,135,0.0,13.8,56,0.00,,---,0.00,VWS V13.01,2013-03-03 17:53:00,
2013-03-03 11:58:00,32.1,17.8,29.21,SE,135,0.0,0.0,55,0.00,,---,0.00,VWS V13.01,2013-03-03 17:58:00,
2013-03-03 12:03:00,32.3,18.0,29.21,ESE,112,12.4,12.4,55,0.00,,---,0.00,VWS V13.01,2013-03-03 18:03:00,
2013-03-03 12:09:00,32.7,17.9,29.21,SE,135,0.0,0.0,54,0.00,,---,0.00,VWS V13.01,2013-03-03 18:09:00,
2013-03-03 12:14:00,32.7,17.5,29.21,SE,135,10.2,10.2,53,0.00,,---,0.00,VWS V13.01,2013-03-03 18:14:00,
2013-03-03 12:19:00,32.7,17.5,29.21,SSE,158,15.6,15.6,53,0.00,,---,0.00,VWS V13.01,2013-03-03 18:19:00,
2013-03-03 12:24:00,32.7,17.5,29.21,SE,135,0.0,0.0,53,0.00,,---,0.00,VWS V13.01,2013-03-03 18:24:00,
2013-03-03 12:29:00,32.7,17.0,29.21,ESE,112,12.8,12.8,52,0.00,,---,0.00,VWS V13.01,2013-03-03 18:29:00,
2013-03-03 12:34:00,32.9,17.2,29.21,SE,135,13.4,13.4,52,0.00,,---,0.00,VWS V13.01,2013-03-03 18:34:00,
2013-03-03 12:39:00,32.9,17.2,29.20,SE,135,4.0,4.0,52,0.00,,---,0.00,VWS V13.01,2013-03-03 18:39:00,
2013-03-03 12:44:00,33.0,16.4,29.20,SE,135,0.0,32.2,50,0.00,,---,0.00,VWS V13.01,2013-03-03 18:44:00,
2013-03-03 12:49:00,33.0,16.4,29.20,ESE,112,6.6,6.6,50,0.00,,---,0.00,VWS V13.01,2013-03-03 18:49:00,
2013-03-03 12:54:00,33.6,17.4,29.20,SE,135,0.0,0.0,51,0.00,,---,0.00,VWS V13.01,2013-03-03 18:54:00,
2013-03-03 12:59:00,34.1,17.9,29.20,SSE,158,0.0,2.2,51,0.00,,---,0.00,VWS V13.01,2013-03-03 18:59:00,
2013-03-03 13:04:00,34.3,17.1,29.19,SE,135,0.0,0.0,49,0.00,,---,0.00,VWS V13.01,2013-03-03 19:04:00,
2013-03-03 13:09:00,34.1,17.0,29.19,SE,135,0.0,0.0,49,0.00,,---,0.00,VWS V13.01,2013-03-03 19:09:00,
2013-03-03 13:14:00,34.3,17.1,29.19,SE,135,0.0,0.0,49,0.00,,---,0.00,VWS V13.01,2013-03-03 19:14:00,
2013-03-03 13:19:00,34.3,17.1,29.19,SE,135,0.0,0.0,49,0.00,,---,0.00,VWS V13.01,2013-03-03 19:19:00,
2013-03-03 13:24:00,34.3,16.7,29.18,SSE,158,0.0,0.0,48,0.00,,---,0.00,VWS V13.01,2013-03-03 19:24:00,
2013-03-03 13:29:00,34.7,17.0,29.18,SE,135,8.8,9.2,48,0.00,,---,0.00,VWS V13.01,2013-03-03 19:29:00,
2013-03-03 13:34:00,34.5,16.4,29.18,SE,135,2.6,2.6,47,0.00,,---,0.00,VWS V13.01,2013-03-03 19:34:00,
2013-03-03 13:39:00,34.3,16.2,29.17,SE,135,0.0,0.0,47,0.00,,---,0.00,VWS V13.01,2013-03-03 19:39:00,
2013-03-03 13:44:00,34.3,16.2,29.18,SE,135,13.8,13.8,47,0.00,,---,0.00,VWS V13.01,2013-03-03 19:44:00,
2013-03-03 13:49:00,34.5,16.4,29.18,SE,135,14.2,14.2,47,0.00,,---,0.00,VWS V13.01,2013-03-03 19:49:00,
2013-03-03 13:54:00,34.7,16.5,29.17,ESE,112,12.0,12.0,47,0.00,,---,0.00,VWS V13.01,2013-03-03 19:54:00,
2013-03-03 13:59:00,34.8,16.1,29.17,SE,135,0.0,15.2,46,0.00,,---,0.00,VWS V13.01,2013-03-03 19:59:00,
2013-03-03 14:04:00,34.8,16.1,29.17,SE,135,16.4,16.4,46,0.00,,---,0.00,VWS V13.01,2013-03-03 20:04:00,
2013-03-03 14:09:00,34.8,16.6,29.17,ESE,112,14.6,14.6,47,0.00,,---,0.00,VWS V13.01,2013-03-03 20:09:00,
2013-03-03 14:14:00,34.8,16.1,29.17,SE,135,6.6,13.4,46,0.00,,---,0.00,VWS V13.01,2013-03-03 20:14:00,
2013-03-03 14:19:00,34.8,16.1,29.16,East,90,5.2,5.2,46,0.00,,---,0.00,VWS V13.01,2013-03-03 20:19:00,
2013-03-03 14:24:00,34.8,16.1,29.17,SE,135,3.4,3.4,46,0.00,,---,0.00,VWS V13.01,2013-03-03 20:24:00,
2013-03-03 14:29:00,34.7,16.0,29.16,SE,135,0.0,10.6,46,0.00,,---,0.00,VWS V13.01,2013-03-03 20:29:00,
2013-03-03 14:34:00,34.5,15.9,29.16,SE,135,19.6,19.6,46,0.00,,---,0.00,VWS V13.01,2013-03-03 20:34:00,
2013-03-03 14:39:00,34.3,15.7,29.16,SE,135,1.6,1.6,46,0.00,,---,0.00,VWS V13.01,2013-03-03 20:39:00,
2013-03-03 14:44:00,34.3,16.2,29.15,SE,135,0.0,0.0,47,0.00,,---,0.00,VWS V13.01,2013-03-03 20:44:00,
2013-03-03 14:49:00,34.3,16.2,29.16,SSE,158,0.0,0.0,47,0.00,,---,0.00,VWS V13.01,2013-03-03 20:49:00,
2013-03-03 14:54:00,34.3,16.2,29.16,SE,135,9.2,16.4,47,0.00,,---,0.00,VWS V13.01,2013-03-03 20:54:00,
2013-03-03 14:59:00,34.3,16.2,29.16,SE,135,0.0,0.0,47,0.00,,---,0.00,VWS V13.01,2013-03-03 20:59:00,
2013-03-03 15:04:00,34.1,16.0,29.16,SE,135,5.2,5.2,47,0.00,,---,0.00,VWS V13.01,2013-03-03 21:04:00,
2013-03-03 15:09:00,33.8,15.7,29.16,SE,135,13.8,13.8,47,0.00,,---,0.00,VWS V13.01,2013-03-03 21:09:00,
2013-03-03 15:14:00,33.6,15.5,29.15,SE,135,0.0,0.0,47,0.00,,---,0.00,VWS V13.01,2013-03-03 21:14:00,
2013-03-03 15:19:00,33.6,16.0,29.15,SSE,158,8.8,8.8,48,0.00,,---,0.00,VWS V13.01,2013-03-03 21:19:00,
2013-03-03 15:24:00,33.6,16.0,29.16,SE,135,0.0,0.0,48,0.00,,---,0.00,VWS V13.01,2013-03-03 21:24:00,
2013-03-03 15:29:00,33.2,16.1,29.15,SE,135,3.0,3.0,49,0.00,,---,0.00,VWS V13.01,2013-03-03 21:29:00,
2013-03-03 15:34:00,32.9,15.9,29.15,SE,135,8.0,8.0,49,0.00,,---,0.00,VWS V13.01,2013-03-03 21:34:00,
2013-03-03 15:39:00,32.9,15.9,29.16,SSE,158,0.0,6.6,49,0.00,,---,0.00,VWS V13.01,2013-03-03 21:39:00,
2013-03-03 15:44:00,32.7,15.7,29.15,SE,135,0.0,0.0,49,0.00,,---,0.00,VWS V13.01,2013-03-03 21:44:00,
2013-03-03 15:49:00,32.7,16.1,29.15,SE,135,8.8,8.8,50,0.00,,---,0.00,VWS V13.01,2013-03-03 21:49:00,
2013-03-03 15:54:00,32.7,16.1,29.14,SE,135,4.0,4.0,50,0.00,,---,0.00,VWS V13.01,2013-03-03 21:54:00,
2013-03-03 15:59:00,32.7,16.1,29.15,SE,135,10.6,10.6,50,0.00,,---,0.00,VWS V13.01,2013-03-03 21:59:00,
2013-03-03 16:04:00,32.5,16.4,29.15,SE,135,19.2,19.2,51,0.00,,---,0.00,VWS V13.01,2013-03-03 22:04:00,
2013-03-03 16:09:00,32.3,16.2,29.14,ESE,112,0.0,0.0,51,0.00,,---,0.00,VWS V13.01,2013-03-03 22:09:00,
2013-03-03 16:14:00,32.3,16.2,29.14,ESE,112,14.6,14.6,51,0.00,,---,0.00,VWS V13.01,2013-03-03 22:14:00,
2013-03-03 16:19:00,32.1,16.5,29.14,SE,135,7.0,7.0,52,0.00,,---,0.00,VWS V13.01,2013-03-03 22:19:00,
2013-03-03 16:24:00,32.1,16.5,29.14,SE,135,0.0,0.0,52,0.00,,---,0.00,VWS V13.01,2013-03-03 22:24:00,
2013-03-03 16:29:00,31.8,16.2,29.14,ESE,112,8.8,8.8,52,0.00,,---,0.00,VWS V13.01,2013-03-03 22:29:00,
2013-03-03 16:34:00,31.6,16.0,29.14,SE,135,0.0,0.0,52,0.00,,---,0.00,VWS V13.01,2013-03-03 22:34:00,
2013-03-03 16:39:00,31.1,16.0,29.14,SE,135,0.0,0.0,53,0.00,,---,0.00,VWS V13.01,2013-03-03 22:39:00,
2013-03-03 16:44:00,30.9,15.8,29.14,ESE,112,11.0,11.0,53,0.00,,---,0.00,VWS V13.01,2013-03-03 22:44:00,
2013-03-03 16:49:00,30.7,16.0,29.14,SE,135,13.8,13.8,54,0.00,,---,0.00,VWS V13.01,2013-03-03 22:49:00,
2013-03-03 16:54:00,30.5,15.9,29.14,ESE,112,0.0,4.8,54,0.00,,---,0.00,VWS V13.01,2013-03-03 22:54:00,
2013-03-03 16:59:00,30.2,15.6,29.14,ESE,112,16.4,16.4,54,0.00,,---,0.00,VWS V13.01,2013-03-03 22:59:00,
2013-03-03 17:04:00,30.0,15.4,29.14,ESE,112,3.0,3.0,54,0.00,,---,0.00,VWS V13.01,2013-03-03 23:04:00,
2013-03-03 17:09:00,29.4,15.2,29.15,SE,135,15.2,15.2,55,0.00,,---,0.00,VWS V13.01,2013-03-03 23:09:00,
2013-03-03 17:14:00,29.1,15.0,29.14,SE,135,0.0,0.0,55,0.00,,---,0.00,VWS V13.01,2013-03-03 23:14:00,
2013-03-03 17:19:00,28.7,14.6,29.15,SE,135,6.6,6.6,55,0.00,,---,0.00,VWS V13.01,2013-03-03 23:19:00,
2013-03-03 17:24:00,28.5,14.4,29.14,SE,135,0.0,0.0,55,0.00,,---,0.00,VWS V13.01,2013-03-03 23:24:00,
2013-03-03 17:29:00,28.2,14.5,29.14,SE,135,9.8,9.8,56,0.00,,---,0.00,VWS V13.01,2013-03-03 23:29:00,
2013-03-03 17:34:00,28.0,14.3,29.14,SE,135,6.6,6.6,56,0.00,,---,0.00,VWS V13.01,2013-03-03 23:34:00,
2013-03-03 17:39:00,27.6,14.0,29.14,SE,135,0.0,3.4,56,0.00,,---,0.00,VWS V13.01,2013-03-03 23:39:00,
2013-03-03 17:44:00,27.1,13.9,29.14,ESE,112,3.0,12.4,57,0.00,,---,0.00,VWS V13.01,2013-03-03 23:44:00,
2013-03-03 17:49:00,26.9,13.7,29.14,ESE,112,15.2,15.2,57,0.00,,---,0.00,VWS V13.01,2013-03-03 23:49:00,
2013-03-03 17:54:00,26.7,13.5,29.14,ESE,112,4.0,8.4,57,0.00,,---,0.00,VWS V13.01,2013-03-03 23:54:00,
2013-03-03 17:59:00,26.6,13.8,29.14,ESE,112,0.0,0.0,58,0.00,,---,0.00,VWS V13.01,2013-03-03 23:59:00,
2013-03-03 18:04:00,26.4,13.6,29.14,ESE,112,14.2,14.2,58,0.00,,---,0.00,VWS V13.01,2013-03-04 00:04:00,
2013-03-03 18:09:00,26.2,13.4,29.14,SE,135,14.2,14.2,58,0.00,,---,0.00,VWS V13.01,2013-03-04 00:09:00,
2013-03-03 18:14:00,26.0,13.6,29.14,SE,135,0.0,15.2,59,0.00,,---,0.00,VWS V13.01,2013-03-04 00:14:00,
2013-03-03 18:19:00,25.8,13.9,29.14,SE,135,0.0,0.0,60,0.00,,---,0.00,VWS V13.01,2013-03-04 00:19:00,
2013-03-03 18:24:00,25.5,13.6,29.14,SE,135,0.0,0.0,60,0.00,,---,0.00,VWS V13.01,2013-03-04 00:24:00,
2013-03-03 18:29:00,25.5,13.6,29.13,ESE,112,10.6,12.0,60,0.00,,---,0.00,VWS V13.01,2013-03-04 00:29:00,
2013-03-03 18:34:00,25.3,13.8,29.13,SE,135,0.0,0.0,61,0.00,,---,0.00,VWS V13.01,2013-03-04 00:34:00,
2013-03-03 18:39:00,25.1,13.9,29.13,SE,135,18.6,18.6,62,0.00,,---,0.00,VWS V13.01,2013-03-04 00:39:00,
2013-03-03 18:44:00,24.9,13.7,29.13,SE,135,16.4,16.4,62,0.00,,---,0.00,VWS V13.01,2013-03-04 00:44:00,
2013-03-03 18:49:00,24.9,13.7,29.14,SE,135,0.0,0.0,62,0.00,,---,0.00,VWS V13.01,2013-03-04 00:49:00,
2013-03-03 18:54:00,24.6,13.8,29.14,SE,135,0.0,4.8,63,0.00,,---,0.00,VWS V13.01,2013-03-04 00:54:00,
2013-03-03 18:59:00,24.6,13.8,29.14,SE,135,0.0,20.4,63,0.00,,---,0.00,VWS V13.01,2013-03-04 00:59:00,
2013-03-03 19:04:00,24.6,13.8,29.13,SE,135,17.4,17.4,63,0.00,,---,0.00,VWS V13.01,2013-03-04 01:04:00,
2013-03-03 19:09:00,24.6,13.8,29.14,SE,135,17.8,17.8,63,0.00,,---,0.00,VWS V13.01,2013-03-04 01:09:00,
2013-03-03 19:14:00,24.4,13.6,29.14,SE,135,3.4,6.2,63,0.00,,---,0.00,VWS V13.01,2013-03-04 01:14:00,
2013-03-03 19:19:00,24.4,14.0,29.14,SE,135,0.0,0.0,64,0.00,,---,0.00,VWS V13.01,2013-03-04 01:19:00,
2013-03-03 19:24:00,24.4,14.0,29.14,SE,135,5.8,7.6,64,0.00,,---,0.00,VWS V13.01,2013-03-04 01:24:00,
2013-03-03 19:29:00,24.4,14.0,29.14,ESE,112,0.0,0.0,64,0.00,,---,0.00,VWS V13.01,2013-03-04 01:29:00,
2013-03-03 19:34:00,24.4,14.3,29.14,SE,135,12.8,12.8,65,0.00,,---,0.00,VWS V13.01,2013-03-04 01:34:00,
2013-03-03 19:39:00,24.0,14.0,29.14,SE,135,0.0,0.0,65,0.00,,---,0.00,VWS V13.01,2013-03-04 01:39:00,
2013-03-03 19:44:00,24.0,14.0,29.14,SE,135,4.0,4.0,65,0.00,,---,0.00,VWS V13.01,2013-03-04 01:44:00,
2013-03-03 19:49:00,24.0,14.0,29.14,SE,135,10.2,10.2,65,0.00,,---,0.00,VWS V13.01,2013-03-04 01:49:00,
2013-03-03 19:54:00,24.0,14.0,29.14,ESE,112,16.0,16.0,65,0.00,,---,0.00,VWS V13.01,2013-03-04 01:54:00,
2013-03-03 19:59:00,24.2,14.1,29.15,ESE,112,0.0,7.6,65,0.00,,---,0.00,VWS V13.01,2013-03-04 01:59:00,
2013-03-03 20:04:00,24.2,14.1,29.14,SE,135,6.6,6.6,65,0.00,,---,0.00,VWS V13.01,2013-03-04 02:04:00,
2013-03-03 20:09:00,24.4,14.3,29.14,SE,135,12.0,12.0,65,0.00,,---,0.00,VWS V13.01,2013-03-04 02:09:00,
2013-03-03 20:14:00,24.4,14.7,29.14,SE,135,8.8,8.8,66,0.00,,---,0.00,VWS V13.01,2013-03-04 02:14:00,
2013-03-03 20:19:00,24.4,14.7,29.14,ESE,112,0.0,0.0,66,0.00,,---,0.00,VWS V13.01,2013-03-04 02:19:00,
2013-03-03 20:24:00,24.4,14.7,29.14,ESE,112,0.0,12.0,66,0.00,,---,0.00,VWS V13.01,2013-03-04 02:24:00,
2013-03-03 20:29:00,24.4,14.7,29.14,SE,135,13.8,13.8,66,0.00,,---,0.00,VWS V13.01,2013-03-04 02:29:00,
2013-03-03 20:34:00,24.4,14.7,29.15,SE,135,0.0,0.0,66,0.00,,---,0.00,VWS V13.01,2013-03-04 02:34:00,
2013-03-03 20:39:00,24.4,14.7,29.14,ESE,112,12.8,12.8,66,0.00,,---,0.00,VWS V13.01,2013-03-04 02:39:00,
2013-03-03 20:44:00,24.4,14.7,29.15,SE,135,0.0,15.6,66,0.00,,---,0.00,VWS V13.01,2013-03-04 02:44:00,
2013-03-03 20:49:00,24.4,14.7,29.14,SE,135,14.6,14.6,66,0.00,,---,0.00,VWS V13.01,2013-03-04 02:49:00,
2013-03-03 20:54:00,24.4,14.7,29.14,SE,135,0.0,27.2,66,0.00,,---,0.00,VWS V13.01,2013-03-04 02:54:00,
2013-03-03 20:59:00,24.4,14.7,29.14,SE,135,10.2,10.2,66,0.00,,---,0.00,VWS V13.01,2013-03-04 02:59:00,
2013-03-03 21:04:00,24.4,14.7,29.14,ESE,112,8.8,8.8,66,0.00,,---,0.00,VWS V13.01,2013-03-04 03:04:00,
2013-03-03 21:09:00,24.4,14.7,29.14,SE,135,14.2,17.4,66,0.00,,---,0.00,VWS V13.01,2013-03-04 03:09:00,
2013-03-03 21:14:00,24.4,14.7,29.13,ESE,112,14.6,14.6,66,0.00,,---,0.00,VWS V13.01,2013-03-04 03:14:00,
2013-03-03 21:19:00,24.4,14.7,29.13,SE,135,13.8,13.8,66,0.00,,---,0.00,VWS V13.01,2013-03-04 03:19:00,
2013-03-03 21:24:00,24.4,14.7,29.14,SE,135,16.4,16.4,66,0.00,,---,0.00,VWS V13.01,2013-03-04 03:24:00,
2013-03-03 21:29:00,24.2,14.5,29.13,ESE,112,14.2,14.2,66,0.00,,---,0.00,VWS V13.01,2013-03-04 03:29:00,
2013-03-03 21:34:00,24.0,14.3,29.13,ESE,112,15.6,15.6,66,0.00,,---,0.00,VWS V13.01,2013-03-04 03:34:00,
2013-03-03 21:39:00,24.0,14.6,29.13,ESE,112,4.8,21.0,67,0.00,,---,0.00,VWS V13.01,2013-03-04 03:39:00,
2013-03-03 21:44:00,24.0,14.6,29.13,SE,135,0.0,9.2,67,0.00,,---,0.00,VWS V13.01,2013-03-04 03:44:00,
2013-03-03 21:49:00,24.0,14.6,29.13,ESE,112,13.4,13.4,67,0.00,,---,0.00,VWS V13.01,2013-03-04 03:49:00,
2013-03-03 21:54:00,24.0,14.6,29.13,ESE,112,0.0,15.2,67,0.00,,---,0.00,VWS V13.01,2013-03-04 03:54:00,
2013-03-03 21:59:00,24.0,14.6,29.12,ESE,112,0.0,8.4,67,0.00,,---,0.00,VWS V13.01,2013-03-04 03:59:00,
2013-03-03 22:04:00,24.0,14.6,29.12,SE,135,0.0,0.0,67,0.00,,---,0.00,VWS V13.01,2013-03-04 04:04:00,
2013-03-03 22:09:00,24.0,14.6,29.12,SE,135,12.8,12.8,67,0.00,,---,0.00,VWS V13.01,2013-03-04 04:09:00,
2013-03-03 22:14:00,24.0,14.6,29.12,SE,135,13.8,13.8,67,0.00,,---,0.00,VWS V13.01,2013-03-04 04:14:00,
2013-03-03 22:19:00,24.0,14.3,29.12,ESE,112,0.0,0.0,66,0.00,,---,0.00,VWS V13.01,2013-03-04 04:19:00,
2013-03-03 22:24:00,24.0,14.3,29.12,SE,135,13.8,13.8,66,0.00,,---,0.00,VWS V13.01,2013-03-04 04:24:00,
2013-03-03 22:29:00,24.0,14.3,29.12,SE,135,3.4,3.4,66,0.00,,---,0.00,VWS V13.01,2013-03-04 04:29:00,
2013-03-03 22:34:00,24.0,14.3,29.12,SE,135,9.2,9.2,66,0.00,,---,0.00,VWS V13.01,2013-03-04 04:34:00,
2013-03-03 22:39:00,24.0,14.3,29.12,SE,135,8.0,8.0,66,0.00,,---,0.00,VWS V13.01,2013-03-04 04:39:00,
2013-03-03 22:44:00,24.0,14.3,29.12,SE,135,6.6,6.6,66,0.00,,---,0.00,VWS V13.01,2013-03-04 04:44:00,
2013-03-03 22:49:00,24.0,14.3,29.12,SE,135,15.2,15.2,66,0.00,,---,0.00,VWS V13.01,2013-03-04 04:49:00,
2013-03-03 22:54:00,24.0,14.3,29.12,SE,135,0.0,0.0,66,0.00,,---,0.00,VWS V13.01,2013-03-04 04:54:00,
2013-03-03 22:59:00,24.0,14.3,29.12,ESE,112,0.0,0.0,66,0.00,,---,0.00,VWS V13.01,2013-03-04 04:59:00,
2013-03-03 23:00:00,24.0,14.3,29.12,ESE,112,0.0,0.0,66,0.00,,---,0.00,VWS V13.01,2013-03-04 05:00:00,
2013-03-03 23:01:00,24.0,14.3,29.12,SSE,158,15.6,15.6,66,0.00,,---,0.00,VWS V13.01,2013-03-04 05:01:00,
2013-03-03 23:02:00,24.0,14.3,29.12,SSE,158,15.6,15.6,66,0.00,,---,0.00,VWS V13.01,2013-03-04 05:02:00,
2013-03-03 23:03:00,24.0,14.3,29.13,SE,135,0.0,15.6,66,0.00,,---,0.00,VWS V13.01,2013-03-04 05:03:00,
2013-03-03 23:08:00,24.0,14.3,29.13,SE,135,0.0,0.0,66,0.00,,---,0.00,VWS V13.01,2013-03-04 05:08:00,
2013-03-03 23:13:00,24.0,14.3,29.13,SE,135,12.8,12.8,66,0.00,,---,0.00,VWS V13.01,2013-03-04 05:13:00,
2013-03-03 23:18:00,24.0,14.3,29.14,SE,135,0.0,0.0,66,0.00,,---,0.00,VWS V13.01,2013-03-04 05:18:00,
2013-03-03 23:23:00,24.2,14.5,29.14,SE,135,0.0,0.0,66,0.00,,---,0.00,VWS V13.01,2013-03-04 05:23:00,
2013-03-03 23:28:00,24.4,15.0,29.14,SE,135,0.0,0.0,67,0.00,,---,0.00,VWS V13.01,2013-03-04 05:28:00,
2013-03-03 23:33:00,24.4,14.7,29.15,ESE,112,0.0,14.6,66,0.00,,---,0.00,VWS V13.01,2013-03-04 05:33:00,
2013-03-03 23:38:00,24.4,14.7,29.14,SE,135,4.4,4.4,66,0.00,,---,0.00,VWS V13.01,2013-03-04 05:38:00,
2013-03-03 23:43:00,24.4,14.7,29.14,SE,135,11.6,11.6,66,0.00,,---,0.00,VWS V13.01,2013-03-04 05:43:00,
2013-03-03 23:48:00,24.4,14.7,29.14,SE,135,4.4,4.4,66,0.00,,---,0.00,VWS V13.01,2013-03-04 05:48:00,
2013-03-03 23:53:00,24.4,14.7,29.14,SSE,158,0.0,0.0,66,0.00,,---,0.00,VWS V13.01,2013-03-04 05:53:00,
2013-03-03 23:58:00,24.4,14.7,29.14,SE,135,0.0,0.0,66,0.00,,---,0.00,VWS V13.01,2013-03-04 05:58:00,